sensor_id;sensor_type;location;lat;lon;timestamp;pressure;altitude;pressure_sealevel;temperature;humidity
39157;BME280;24889;42.424;25.604;2022-08-27T00:00:50;97584.91;;;23.84;59.47
39157;BME280;24889;42.424;25.604;2022-08-27T00:03:16;97593.47;;;23.69;59.68
39157;BME280;24889;42.424;25.604;2022-08-27T00:05:42;97590.94;;;23.59;60.16
39157;BME280;24889;42.424;25.604;2022-08-27T00:08:09;97583.28;;;23.47;59.74
39157;BME280;24889;42.424;25.604;2022-08-27T00:10:37;97595.06;;;23.70;59.40
39157;BME280;24889;42.424;25.604;2022-08-27T00:13:03;97589.66;;;23.78;59.25
39157;BME280;24889;42.424;25.604;2022-08-27T00:15:28;97591.97;;;23.85;58.60
39157;BME280;24889;42.424;25.604;2022-08-27T00:17:54;97592.09;;;23.80;58.35
39157;BME280;24889;42.424;25.604;2022-08-27T00:20:21;97583.66;;;23.90;57.85
39157;BME280;24889;42.424;25.604;2022-08-27T00:22:47;97578.94;;;24.04;56.96
39157;BME280;24889;42.424;25.604;2022-08-27T00:25:13;97590.03;;;24.08;57.35
39157;BME280;24889;42.424;25.604;2022-08-27T00:27:39;97581.78;;;23.99;59.47
39157;BME280;24889;42.424;25.604;2022-08-27T00:30:07;97592.72;;;23.99;58.46
39157;BME280;24889;42.424;25.604;2022-08-27T00:32:33;97584.38;;;24.04;58.96
39157;BME280;24889;42.424;25.604;2022-08-27T00:34:58;97589.09;;;24.13;59.57
39157;BME280;24889;42.424;25.604;2022-08-27T00:37:24;97579.28;;;24.12;57.60
39157;BME280;24889;42.424;25.604;2022-08-27T00:39:49;97587.69;;;24.15;57.87
39157;BME280;24889;42.424;25.604;2022-08-27T00:42:15;97568.13;;;23.99;57.50
39157;BME280;24889;42.424;25.604;2022-08-27T00:44:40;97590.03;;;24.08;57.86
39157;BME280;24889;42.424;25.604;2022-08-27T00:47:12;97584.94;;;24.15;59.12
39157;BME280;24889;42.424;25.604;2022-08-27T00:52:25;97589.97;;;24.22;58.25
39157;BME280;24889;42.424;25.604;2022-08-27T00:54:56;97581.81;;;24.31;56.44
39157;BME280;24889;42.424;25.604;2022-08-27T00:57:23;97597.41;;;24.30;57.29
39157;BME280;24889;42.424;25.604;2022-08-27T00:59:49;97590.53;;;24.33;57.23
39157;BME280;24889;42.424;25.604;2022-08-27T01:02:15;97590.19;;;24.34;55.50
39157;BME280;24889;42.424;25.604;2022-08-27T01:07:11;97573.69;;;24.39;56.40
39157;BME280;24889;42.424;25.604;2022-08-27T01:09:41;97591.56;;;24.45;56.13
39157;BME280;24889;42.424;25.604;2022-08-27T01:12:07;97583.41;;;24.32;56.98
39157;BME280;24889;42.424;25.604;2022-08-27T01:14:33;97587.59;;;24.29;57.33
39157;BME280;24889;42.424;25.604;2022-08-27T01:17:00;97583.88;;;24.25;57.09
39157;BME280;24889;42.424;25.604;2022-08-27T01:19:33;97582.91;;;24.21;57.78
39157;BME280;24889;42.424;25.604;2022-08-27T01:24:40;97583.00;;;24.16;57.97
39157;BME280;24889;42.424;25.604;2022-08-27T01:27:08;97576.88;;;24.10;58.14
39157;BME280;24889;42.424;25.604;2022-08-27T01:29:35;97578.69;;;24.15;58.14
39157;BME280;24889;42.424;25.604;2022-08-27T01:32:08;97568.97;;;24.09;58.19
39157;BME280;24889;42.424;25.604;2022-08-27T01:34:35;97570.88;;;23.99;58.08
39157;BME280;24889;42.424;25.604;2022-08-27T01:37:01;97571.34;;;24.01;58.57
39157;BME280;24889;42.424;25.604;2022-08-27T01:39:26;97569.19;;;23.90;58.89
39157;BME280;24889;42.424;25.604;2022-08-27T01:41:52;97567.16;;;23.95;58.78
39157;BME280;24889;42.424;25.604;2022-08-27T01:44:18;97544.91;;;23.88;58.38
39157;BME280;24889;42.424;25.604;2022-08-27T01:46:43;97572.91;;;23.94;58.78
39157;BME280;24889;42.424;25.604;2022-08-27T01:49:09;97571.72;;;23.86;59.12
39157;BME280;24889;42.424;25.604;2022-08-27T01:51:35;97565.66;;;23.89;58.44
39157;BME280;24889;42.424;25.604;2022-08-27T01:54:01;97566.63;;;23.93;58.58
39157;BME280;24889;42.424;25.604;2022-08-27T01:56:27;97577.19;;;23.86;58.16
39157;BME280;24889;42.424;25.604;2022-08-27T01:58:53;97567.25;;;23.90;57.59
39157;BME280;24889;42.424;25.604;2022-08-27T02:01:19;97554.34;;;23.82;57.11
39157;BME280;24889;42.424;25.604;2022-08-27T02:03:44;97565.22;;;23.96;57.36
39157;BME280;24889;42.424;25.604;2022-08-27T02:06:11;97570.88;;;23.99;57.13
39157;BME280;24889;42.424;25.604;2022-08-27T02:08:37;97565.41;;;23.99;57.04
39157;BME280;24889;42.424;25.604;2022-08-27T02:11:03;97570.31;;;23.89;56.76
39157;BME280;24889;42.424;25.604;2022-08-27T02:13:29;97560.63;;;23.83;56.90
39157;BME280;24889;42.424;25.604;2022-08-27T02:15:54;97567.25;;;23.90;56.11
39157;BME280;24889;42.424;25.604;2022-08-27T02:18:20;97544.41;;;23.86;56.61
39157;BME280;24889;42.424;25.604;2022-08-27T02:20:46;97573.59;;;23.99;56.83
39157;BME280;24889;42.424;25.604;2022-08-27T02:23:12;97574.34;;;23.91;56.96
39157;BME280;24889;42.424;25.604;2022-08-27T02:25:38;97578.81;;;23.87;57.31
39157;BME280;24889;42.424;25.604;2022-08-27T02:28:05;97569.19;;;23.90;57.38
39157;BME280;24889;42.424;25.604;2022-08-27T02:30:32;97580.91;;;23.90;57.65
39157;BME280;24889;42.424;25.604;2022-08-27T02:32:59;97578.38;;;23.94;57.05
39157;BME280;24889;42.424;25.604;2022-08-27T02:35:25;97574.97;;;23.88;57.67
39157;BME280;24889;42.424;25.604;2022-08-27T02:37:51;97568.88;;;23.91;57.66
39157;BME280;24889;42.424;25.604;2022-08-27T02:40:19;97569.50;;;23.88;57.64
39157;BME280;24889;42.424;25.604;2022-08-27T02:42:45;97576.19;;;23.82;58.46
39157;BME280;24889;42.424;25.604;2022-08-27T02:45:12;97575.53;;;23.76;58.40
39157;BME280;24889;42.424;25.604;2022-08-27T02:47:38;97567.75;;;23.70;58.47
39157;BME280;24889;42.424;25.604;2022-08-27T02:50:04;97569.25;;;23.76;57.60
39157;BME280;24889;42.424;25.604;2022-08-27T02:52:30;97560.44;;;23.79;57.79
39157;BME280;24889;42.424;25.604;2022-08-27T02:54:56;97572.00;;;23.76;58.27
39157;BME280;24889;42.424;25.604;2022-08-27T02:57:21;97564.09;;;23.74;57.67
39157;BME280;24889;42.424;25.604;2022-08-27T02:59:48;97564.72;;;23.71;57.93
39157;BME280;24889;42.424;25.604;2022-08-27T03:02:14;97564.28;;;23.78;57.24
39157;BME280;24889;42.424;25.604;2022-08-27T03:04:40;97558.81;;;23.78;57.44
39157;BME280;24889;42.424;25.604;2022-08-27T03:07:06;97564.78;;;23.80;56.76
39157;BME280;24889;42.424;25.604;2022-08-27T03:09:32;97564.72;;;23.71;57.16
39157;BME280;24889;42.424;25.604;2022-08-27T03:11:57;97575.63;;;23.71;57.85
39157;BME280;24889;42.424;25.604;2022-08-27T03:14:23;97565.84;;;23.70;57.23
39157;BME280;24889;42.424;25.604;2022-08-27T03:16:49;97565.59;;;23.81;57.72
39157;BME280;24889;42.424;25.604;2022-08-27T03:19:14;97569.50;;;23.88;55.39
39157;BME280;24889;42.424;25.604;2022-08-27T03:21:40;97574.03;;;23.93;56.39
39157;BME280;24889;42.424;25.604;2022-08-27T03:24:05;97584.72;;;24.03;56.27
39157;BME280;24889;42.424;25.604;2022-08-27T03:26:31;97584.34;;;23.96;57.66
39157;BME280;24889;42.424;25.604;2022-08-27T03:28:58;97588.56;;;24.02;57.14
39157;BME280;24889;42.424;25.604;2022-08-27T03:31:25;97589.94;;;24.13;56.98
39157;BME280;24889;42.424;25.604;2022-08-27T03:34:01;97580.72;;;24.09;57.39
39157;BME280;24889;42.424;25.604;2022-08-27T03:36:29;97580.72;;;24.09;56.77
39157;BME280;24889;42.424;25.604;2022-08-27T03:38:55;97580.81;;;23.95;57.66
39157;BME280;24889;42.424;25.604;2022-08-27T03:41:21;97587.50;;;23.89;58.22
39157;BME280;24889;42.424;25.604;2022-08-27T03:43:47;97587.25;;;23.77;58.71
39157;BME280;24889;42.424;25.604;2022-08-27T03:46:14;97580.53;;;23.61;60.00
39157;BME280;24889;42.424;25.604;2022-08-27T03:48:41;97589.31;;;23.58;59.95
39157;BME280;24889;42.424;25.604;2022-08-27T03:51:12;97591.06;;;23.53;59.58
39157;BME280;24889;42.424;25.604;2022-08-27T03:53:41;97592.72;;;23.63;59.87
39157;BME280;24889;42.424;25.604;2022-08-27T03:56:07;97596.78;;;23.66;59.53
39157;BME280;24889;42.424;25.604;2022-08-27T03:58:34;97589.38;;;23.80;59.47
39157;BME280;24889;42.424;25.604;2022-08-27T04:01:00;97594.22;;;23.83;58.86
39157;BME280;24889;42.424;25.604;2022-08-27T04:03:26;97590.25;;;23.89;58.74
39157;BME280;24889;42.424;25.604;2022-08-27T04:05:54;97597.56;;;24.02;58.29
39157;BME280;24889;42.424;25.604;2022-08-27T04:08:21;97601.91;;;23.81;59.05
39157;BME280;24889;42.424;25.604;2022-08-27T04:10:47;97612.22;;;23.84;59.88
39157;BME280;24889;42.424;25.604;2022-08-27T04:13:14;97599.69;;;23.83;60.02
39157;BME280;24889;42.424;25.604;2022-08-27T04:15:43;97608.31;;;23.76;60.34
39157;BME280;24889;42.424;25.604;2022-08-27T04:18:08;97615.50;;;23.59;60.80
39157;BME280;24889;42.424;25.604;2022-08-27T04:20:34;97620.56;;;23.65;60.36
39157;BME280;24889;42.424;25.604;2022-08-27T04:22:59;97593.66;;;23.72;60.35
39157;BME280;24889;42.424;25.604;2022-08-27T04:25:25;97602.84;;;23.99;59.65
39157;BME280;24889;42.424;25.604;2022-08-27T04:27:50;97607.00;;;24.19;59.53
39157;BME280;24889;42.424;25.604;2022-08-27T04:30:16;97607.72;;;24.33;58.73
39157;BME280;24889;42.424;25.604;2022-08-27T04:32:43;97610.09;;;24.48;60.04
39157;BME280;24889;42.424;25.604;2022-08-27T04:35:09;97606.63;;;24.65;59.50
39157;BME280;24889;42.424;25.604;2022-08-27T04:37:36;97603.63;;;24.84;58.28
39157;BME280;24889;42.424;25.604;2022-08-27T04:40:03;97609.25;;;25.19;56.97
39157;BME280;24889;42.424;25.604;2022-08-27T04:42:29;97615.72;;;25.49;56.56
39157;BME280;24889;42.424;25.604;2022-08-27T04:44:55;97608.47;;;25.53;55.58
39157;BME280;24889;42.424;25.604;2022-08-27T04:47:20;97610.75;;;25.42;56.16
39157;BME280;24889;42.424;25.604;2022-08-27T04:49:46;97615.06;;;25.26;56.57
39157;BME280;24889;42.424;25.604;2022-08-27T04:52:12;97618.13;;;25.33;56.71
39157;BME280;24889;42.424;25.604;2022-08-27T04:54:38;97613.91;;;25.10;57.43
39157;BME280;24889;42.424;25.604;2022-08-27T04:57:04;97623.84;;;25.06;58.01
39157;BME280;24889;42.424;25.604;2022-08-27T04:59:30;97624.75;;;24.92;58.85
39157;BME280;24889;42.424;25.604;2022-08-27T05:01:56;97629.59;;;24.95;59.89
39157;BME280;24889;42.424;25.604;2022-08-27T05:04:22;97622.72;;;25.07;60.30
39157;BME280;24889;42.424;25.604;2022-08-27T05:06:47;97632.28;;;25.18;60.51
39157;BME280;24889;42.424;25.604;2022-08-27T05:09:16;97631.47;;;25.17;62.50
39157;BME280;24889;42.424;25.604;2022-08-27T05:11:42;97626.22;;;24.98;63.23
39157;BME280;24889;42.424;25.604;2022-08-27T05:14:10;97630.69;;;24.86;61.23
39157;BME280;24889;42.424;25.604;2022-08-27T05:16:36;97637.75;;;24.78;61.09
39157;BME280;24889;42.424;25.604;2022-08-27T05:19:02;97629.25;;;24.88;58.67
39157;BME280;24889;42.424;25.604;2022-08-27T05:21:32;97628.25;;;24.84;58.30
39157;BME280;24889;42.424;25.604;2022-08-27T05:24:01;97640.34;;;24.83;58.18
39157;BME280;24889;42.424;25.604;2022-08-27T05:26:28;97627.56;;;24.70;58.23
39157;BME280;24889;42.424;25.604;2022-08-27T05:28:54;97629.84;;;24.76;58.23
39157;BME280;24889;42.424;25.604;2022-08-27T05:31:22;97637.41;;;24.71;57.98
39157;BME280;24889;42.424;25.604;2022-08-27T05:33:48;97637.59;;;24.83;57.44
39157;BME280;24889;42.424;25.604;2022-08-27T05:36:16;97636.88;;;24.69;56.87
39157;BME280;24889;42.424;25.604;2022-08-27T05:38:43;97637.69;;;24.69;57.28
39157;BME280;24889;42.424;25.604;2022-08-27T05:41:11;97642.91;;;24.80;56.83
39157;BME280;24889;42.424;25.604;2022-08-27T05:43:38;97636.81;;;24.91;56.87
39157;BME280;24889;42.424;25.604;2022-08-27T05:46:07;97647.00;;;24.99;56.80
39157;BME280;24889;42.424;25.604;2022-08-27T05:48:35;97646.22;;;25.08;57.08
39157;BME280;24889;42.424;25.604;2022-08-27T05:54:11;97646.28;;;25.16;56.65
39157;BME280;24889;42.424;25.604;2022-08-27T05:56:43;97645.97;;;25.18;56.81
39157;BME280;24889;42.424;25.604;2022-08-27T05:59:08;97638.41;;;25.23;55.41
39157;BME280;24889;42.424;25.604;2022-08-27T06:01:53;97652.59;;;25.34;55.94
39157;BME280;24889;42.424;25.604;2022-08-27T06:04:20;97655.38;;;25.43;56.36
39157;BME280;24889;42.424;25.604;2022-08-27T06:06:47;97655.06;;;25.53;55.68
39157;BME280;24889;42.424;25.604;2022-08-27T06:09:16;97647.34;;;25.55;57.37
39157;BME280;24889;42.424;25.604;2022-08-27T06:11:41;97659.44;;;25.63;56.29
39157;BME280;24889;42.424;25.604;2022-08-27T06:14:08;97655.09;;;25.62;56.00
39157;BME280;24889;42.424;25.604;2022-08-27T06:16:33;97651.06;;;25.77;55.69
39157;BME280;24889;42.424;25.604;2022-08-27T06:18:59;97653.34;;;25.83;55.80
39157;BME280;24889;42.424;25.604;2022-08-27T06:21:24;97649.31;;;25.89;55.05
39157;BME280;24889;42.424;25.604;2022-08-27T06:23:51;97655.31;;;25.91;55.40
39157;BME280;24889;42.424;25.604;2022-08-27T06:26:18;97667.69;;;26.24;54.61
39157;BME280;24889;42.424;25.604;2022-08-27T06:28:44;97663.97;;;26.19;54.60
39157;BME280;24889;42.424;25.604;2022-08-27T06:31:15;97676.41;;;26.26;55.11
39157;BME280;24889;42.424;25.604;2022-08-27T06:33:42;97675.72;;;26.29;56.82
39157;BME280;24889;42.424;25.604;2022-08-27T06:36:11;97678.50;;;26.03;61.87
39157;BME280;24889;42.424;25.604;2022-08-27T06:38:37;97682.94;;;25.46;65.30
39157;BME280;24889;42.424;25.604;2022-08-27T06:41:05;97679.22;;;25.03;67.46
39157;BME280;24889;42.424;25.604;2022-08-27T06:43:31;97688.19;;;24.94;68.47
39157;BME280;24889;42.424;25.604;2022-08-27T06:45:56;97686.72;;;24.88;67.76
39157;BME280;24889;42.424;25.604;2022-08-27T06:48:23;97693.03;;;24.97;68.68
39157;BME280;24889;42.424;25.604;2022-08-27T06:50:48;97688.03;;;24.99;67.54
39157;BME280;24889;42.424;25.604;2022-08-27T06:53:14;97696.03;;;25.10;68.57
39157;BME280;24889;42.424;25.604;2022-08-27T06:55:44;97695.81;;;25.06;67.86
39157;BME280;24889;42.424;25.604;2022-08-27T06:58:17;97692.94;;;25.11;67.23
39157;BME280;24889;42.424;25.604;2022-08-27T07:00:43;97700.97;;;25.08;67.68
39157;BME280;24889;42.424;25.604;2022-08-27T07:03:10;97703.03;;;25.33;66.86
39157;BME280;24889;42.424;25.604;2022-08-27T07:05:38;97705.94;;;25.45;67.35
39157;BME280;24889;42.424;25.604;2022-08-27T07:08:07;97707.19;;;25.79;66.95
39157;BME280;24889;42.424;25.604;2022-08-27T07:10:34;97706.06;;;25.98;64.60
39157;BME280;24889;42.424;25.604;2022-08-27T07:12:59;97710.69;;;25.62;65.63
39157;BME280;24889;42.424;25.604;2022-08-27T07:15:25;97713.53;;;25.40;65.40
39157;BME280;24889;42.424;25.604;2022-08-27T07:17:51;97721.72;;;25.40;65.24
39157;BME280;24889;42.424;25.604;2022-08-27T07:20:17;97727.19;;;25.31;64.84
39157;BME280;24889;42.424;25.604;2022-08-27T07:22:43;97727.31;;;25.26;64.50
39157;BME280;24889;42.424;25.604;2022-08-27T07:25:12;97725.59;;;25.39;61.53
39157;BME280;24889;42.424;25.604;2022-08-27T07:27:39;97715.19;;;25.58;60.27
39157;BME280;24889;42.424;25.604;2022-08-27T07:30:07;97718.44;;;25.69;59.08
39157;BME280;24889;42.424;25.604;2022-08-27T07:32:32;97720.56;;;25.89;59.82
39157;BME280;24889;42.424;25.604;2022-08-27T07:34:58;97719.28;;;26.13;59.10
39157;BME280;24889;42.424;25.604;2022-08-27T07:37:23;97718.16;;;26.40;58.06
39157;BME280;24889;42.424;25.604;2022-08-27T07:39:49;97724.75;;;26.82;56.39
39157;BME280;24889;42.424;25.604;2022-08-27T07:42:14;97714.50;;;27.09;56.00
39157;BME280;24889;42.424;25.604;2022-08-27T07:44:58;97723.06;;;27.46;55.51
39157;BME280;24889;42.424;25.604;2022-08-27T07:47:24;97718.75;;;27.74;55.12
39157;BME280;24889;42.424;25.604;2022-08-27T07:49:49;97713.66;;;28.06;56.90
39157;BME280;24889;42.424;25.604;2022-08-27T07:52:15;97712.72;;;28.02;54.64
39157;BME280;24889;42.424;25.604;2022-08-27T07:54:42;97718.34;;;28.05;53.77
39157;BME280;24889;42.424;25.604;2022-08-27T07:57:09;97718.56;;;28.00;54.54
39157;BME280;24889;42.424;25.604;2022-08-27T07:59:35;97709.22;;;28.13;53.82
39157;BME280;24889;42.424;25.604;2022-08-27T08:02:00;97711.38;;;28.08;54.08
39157;BME280;24889;42.424;25.604;2022-08-27T08:04:25;97717.66;;;28.29;53.32
39157;BME280;24889;42.424;25.604;2022-08-27T08:06:51;97714.91;;;28.29;53.07
39157;BME280;24889;42.424;25.604;2022-08-27T08:09:18;97714.31;;;28.24;53.22
39157;BME280;24889;42.424;25.604;2022-08-27T08:11:44;97713.09;;;28.33;52.82
39157;BME280;24889;42.424;25.604;2022-08-27T08:14:09;97714.56;;;28.85;50.32
39157;BME280;24889;42.424;25.604;2022-08-27T08:16:35;97713.16;;;28.79;51.30
39157;BME280;24889;42.424;25.604;2022-08-27T08:19:00;97717.41;;;28.76;50.20
39157;BME280;24889;42.424;25.604;2022-08-27T08:21:26;97712.22;;;28.75;50.06
39157;BME280;24889;42.424;25.604;2022-08-27T08:23:51;97721.59;;;28.95;49.95
39157;BME280;24889;42.424;25.604;2022-08-27T08:26:17;97715.88;;;29.00;48.93
39157;BME280;24889;42.424;25.604;2022-08-27T08:28:42;97715.91;;;29.12;49.12
39157;BME280;24889;42.424;25.604;2022-08-27T08:31:08;97718.00;;;28.82;49.05
39157;BME280;24889;42.424;25.604;2022-08-27T08:33:34;97720.53;;;28.33;49.91
39157;BME280;24889;42.424;25.604;2022-08-27T08:36:10;97726.13;;;28.03;51.24
39157;BME280;24889;42.424;25.604;2022-08-27T08:44:43;97721.78;;;27.81;51.74
39157;BME280;24889;42.424;25.604;2022-08-27T08:47:21;97726.88;;;28.12;51.39
39157;BME280;24889;42.424;25.604;2022-08-27T08:52:37;97722.97;;;28.55;50.72
39157;BME280;24889;42.424;25.604;2022-08-27T08:57:49;97729.00;;;29.27;48.84
39157;BME280;24889;42.424;25.604;2022-08-27T09:00:16;97715.69;;;29.91;48.38
39157;BME280;24889;42.424;25.604;2022-08-27T09:02:48;97716.16;;;29.80;46.77
39157;BME280;24889;42.424;25.604;2022-08-27T09:05:15;97713.25;;;30.70;47.59
39157;BME280;24889;42.424;25.604;2022-08-27T09:08:06;97719.56;;;31.46;45.42
39157;BME280;24889;42.424;25.604;2022-08-27T09:10:58;97715.84;;;32.25;43.39
39157;BME280;24889;42.424;25.604;2022-08-27T09:13:27;97708.97;;;32.96;42.35
39157;BME280;24889;42.424;25.604;2022-08-27T09:15:58;97713.31;;;33.43;38.23
39157;BME280;24889;42.424;25.604;2022-08-27T09:18:25;97722.97;;;34.02;34.03
39157;BME280;24889;42.424;25.604;2022-08-27T09:21:03;97714.50;;;34.22;33.30
39157;BME280;24889;42.424;25.604;2022-08-27T09:26:28;97720.06;;;33.69;33.62
39157;BME280;24889;42.424;25.604;2022-08-27T09:28:59;97708.31;;;33.29;34.93
39157;BME280;24889;42.424;25.604;2022-08-27T09:31:41;97708.81;;;33.58;34.53
39157;BME280;24889;42.424;25.604;2022-08-27T09:34:07;97710.72;;;32.07;35.50
39157;BME280;24889;42.424;25.604;2022-08-27T09:36:34;97709.03;;;31.67;35.61
39157;BME280;24889;42.424;25.604;2022-08-27T09:39:03;97698.94;;;32.49;35.06
39157;BME280;24889;42.424;25.604;2022-08-27T09:41:38;97712.53;;;32.58;35.53
39157;BME280;24889;42.424;25.604;2022-08-27T09:44:09;97706.88;;;32.70;34.73
39157;BME280;24889;42.424;25.604;2022-08-27T09:46:36;97707.22;;;32.30;36.79
39157;BME280;24889;42.424;25.604;2022-08-27T09:49:12;97693.09;;;32.35;35.84
39157;BME280;24889;42.424;25.604;2022-08-27T09:51:40;97699.78;;;32.14;35.62
39157;BME280;24889;42.424;25.604;2022-08-27T09:54:08;97711.09;;;32.06;36.27
39157;BME280;24889;42.424;25.604;2022-08-27T09:59:35;97684.25;;;33.10;33.75
39157;BME280;24889;42.424;25.604;2022-08-27T10:02:14;97691.38;;;33.57;33.71
39157;BME280;24889;42.424;25.604;2022-08-27T10:04:49;97702.75;;;33.79;32.47
39157;BME280;24889;42.424;25.604;2022-08-27T10:07:47;97704.63;;;33.98;31.86
39157;BME280;24889;42.424;25.604;2022-08-27T10:13:07;97706.81;;;33.85;31.23
39157;BME280;24889;42.424;25.604;2022-08-27T10:16:01;97705.28;;;33.87;31.45
39157;BME280;24889;42.424;25.604;2022-08-27T10:18:39;97699.94;;;34.32;30.63
39157;BME280;24889;42.424;25.604;2022-08-27T10:21:25;97694.78;;;33.74;31.16
39157;BME280;24889;42.424;25.604;2022-08-27T10:30:25;97697.22;;;34.05;31.21
39157;BME280;24889;42.424;25.604;2022-08-27T10:35:41;97706.19;;;33.95;31.40
39157;BME280;24889;42.424;25.604;2022-08-27T10:38:23;97693.25;;;33.76;31.38
39157;BME280;24889;42.424;25.604;2022-08-27T10:40:59;97705.75;;;33.66;32.28
39157;BME280;24889;42.424;25.604;2022-08-27T10:46:17;97698.97;;;33.60;32.13
39157;BME280;24889;42.424;25.604;2022-08-27T10:49:16;97706.06;;;34.14;31.45
39157;BME280;24889;42.424;25.604;2022-08-27T10:52:21;97706.56;;;34.24;31.30
39157;BME280;24889;42.424;25.604;2022-08-27T11:00:15;97696.88;;;33.54;31.19
39157;BME280;24889;42.424;25.604;2022-08-27T11:02:51;97691.44;;;33.61;30.91
39157;BME280;24889;42.424;25.604;2022-08-27T11:05:28;97698.47;;;33.55;31.69
39157;BME280;24889;42.424;25.604;2022-08-27T11:11:10;97689.13;;;33.66;31.53
39157;BME280;24889;42.424;25.604;2022-08-27T11:13:42;97686.25;;;33.59;31.98
39157;BME280;24889;42.424;25.604;2022-08-27T11:16:22;97702.47;;;33.84;31.31
39157;BME280;24889;42.424;25.604;2022-08-27T11:22:04;97681.69;;;33.74;29.92
39157;BME280;24889;42.424;25.604;2022-08-27T11:24:46;97684.59;;;33.32;31.56
39157;BME280;24889;42.424;25.604;2022-08-27T11:27:18;97677.41;;;33.27;31.87
39157;BME280;24889;42.424;25.604;2022-08-27T11:30:07;97679.84;;;33.32;31.59
39157;BME280;24889;42.424;25.604;2022-08-27T11:32:44;97677.00;;;33.52;31.19
39157;BME280;24889;42.424;25.604;2022-08-27T11:35:27;97676.66;;;33.53;31.52
39157;BME280;24889;42.424;25.604;2022-08-27T11:41:25;97661.97;;;33.03;30.37
39157;BME280;24889;42.424;25.604;2022-08-27T11:43:53;97670.63;;;32.79;30.86
39157;BME280;24889;42.424;25.604;2022-08-27T11:46:25;97670.94;;;32.54;31.33
39157;BME280;24889;42.424;25.604;2022-08-27T11:48:57;97665.91;;;32.60;30.96
39157;BME280;24889;42.424;25.604;2022-08-27T11:51:34;97666.09;;;32.48;31.41
39157;BME280;24889;42.424;25.604;2022-08-27T11:54:06;97666.16;;;32.51;31.34
39157;BME280;24889;42.424;25.604;2022-08-27T11:56:42;97670.59;;;32.56;31.35
39157;BME280;24889;42.424;25.604;2022-08-27T12:01:54;97652.81;;;32.57;31.36
39157;BME280;24889;42.424;25.604;2022-08-27T12:12:48;97666.81;;;32.87;31.28
39157;BME280;24889;42.424;25.604;2022-08-27T12:15:49;97650.78;;;32.96;30.13
39157;BME280;24889;42.424;25.604;2022-08-27T12:18:30;97655.69;;;33.06;30.58
39157;BME280;24889;42.424;25.604;2022-08-27T12:21:45;97645.69;;;32.79;32.12
39157;BME280;24889;42.424;25.604;2022-08-27T12:24:40;97646.69;;;32.90;31.51
39157;BME280;24889;42.424;25.604;2022-08-27T12:27:33;97646.03;;;32.54;31.70
39157;BME280;24889;42.424;25.604;2022-08-27T12:32:50;97643.91;;;32.90;30.72
39157;BME280;24889;42.424;25.604;2022-08-27T12:35:41;97642.38;;;33.15;30.98
39157;BME280;24889;42.424;25.604;2022-08-27T12:38:39;97624.03;;;33.07;31.62
39157;BME280;24889;42.424;25.604;2022-08-27T12:41:07;97622.47;;;33.10;32.53
39157;BME280;24889;42.424;25.604;2022-08-27T12:43:37;97644.94;;;33.28;31.46
39157;BME280;24889;42.424;25.604;2022-08-27T12:46:18;97639.41;;;33.28;31.79
39157;BME280;24889;42.424;25.604;2022-08-27T12:48:45;97632.75;;;32.86;31.03
39157;BME280;24889;42.424;25.604;2022-08-27T12:51:17;97641.44;;;32.85;31.20
39157;BME280;24889;42.424;25.604;2022-08-27T12:57:16;97633.94;;;32.23;32.15
39157;BME280;24889;42.424;25.604;2022-08-27T13:00:07;97629.28;;;32.28;31.54
39157;BME280;24889;42.424;25.604;2022-08-27T13:05:10;97629.50;;;32.38;31.71
39157;BME280;24889;42.424;25.604;2022-08-27T13:07:42;97625.22;;;32.41;31.54
39157;BME280;24889;42.424;25.604;2022-08-27T13:10:11;97624.06;;;32.65;31.44
39157;BME280;24889;42.424;25.604;2022-08-27T13:12:39;97632.03;;;32.66;31.92
39157;BME280;24889;42.424;25.604;2022-08-27T13:15:06;97626.78;;;32.61;32.65
39157;BME280;24889;42.424;25.604;2022-08-27T13:17:37;97623.25;;;32.41;31.68
39157;BME280;24889;42.424;25.604;2022-08-27T13:20:12;97617.38;;;32.43;31.87
39157;BME280;24889;42.424;25.604;2022-08-27T13:22:40;97626.03;;;32.41;32.12
39157;BME280;24889;42.424;25.604;2022-08-27T13:27:52;97622.28;;;32.53;31.57
39157;BME280;24889;42.424;25.604;2022-08-27T13:30:18;97617.78;;;32.68;32.10
39157;BME280;24889;42.424;25.604;2022-08-27T13:32:43;97618.84;;;32.60;32.62
39157;BME280;24889;42.424;25.604;2022-08-27T13:35:09;97617.72;;;32.64;31.98
39157;BME280;24889;42.424;25.604;2022-08-27T13:37:43;97613.25;;;32.37;31.85
39157;BME280;24889;42.424;25.604;2022-08-27T13:40:28;97621.50;;;32.33;32.13
39157;BME280;24889;42.424;25.604;2022-08-27T13:42:57;97621.56;;;32.37;31.90
39157;BME280;24889;42.424;25.604;2022-08-27T13:45:27;97620.81;;;32.59;31.68
39157;BME280;24889;42.424;25.604;2022-08-27T13:47:53;97616.75;;;32.53;31.13
39157;BME280;24889;42.424;25.604;2022-08-27T13:52:47;97627.09;;;32.56;32.00
39157;BME280;24889;42.424;25.604;2022-08-27T13:55:32;97616.47;;;32.58;32.11
39157;BME280;24889;42.424;25.604;2022-08-27T13:57:57;97620.56;;;32.68;32.02
39157;BME280;24889;42.424;25.604;2022-08-27T14:00:31;97624.25;;;32.76;31.62
39157;BME280;24889;42.424;25.604;2022-08-27T14:02:58;97622.13;;;32.88;31.94
39157;BME280;24889;42.424;25.604;2022-08-27T14:05:26;97626.03;;;32.87;32.02
39157;BME280;24889;42.424;25.604;2022-08-27T14:07:57;97621.56;;;32.56;31.71
39157;BME280;24889;42.424;25.604;2022-08-27T14:10:35;97634.00;;;32.46;31.57
39157;BME280;24889;42.424;25.604;2022-08-27T14:13:05;97626.09;;;32.45;31.70
39157;BME280;24889;42.424;25.604;2022-08-27T14:15:36;97618.53;;;32.65;32.15
39157;BME280;24889;42.424;25.604;2022-08-27T14:18:06;97607.72;;;32.56;31.25
39157;BME280;24889;42.424;25.604;2022-08-27T14:20:32;97624.63;;;32.51;31.70
39157;BME280;24889;42.424;25.604;2022-08-27T14:22:58;97621.56;;;32.56;32.33
39157;BME280;24889;42.424;25.604;2022-08-27T14:25:24;97607.44;;;32.65;32.36